Time;durP1;ratioP1;P1;durP2;ratioP2;P2;SDS_P1;SDS_P2;PMS_P1;PMS_P2;Temp;Humidity;BMP_temperature;BMP_pressure;BME280_temperature;BME280_humidity;BME280_pressure;Samples;Min_cycle;Max_cycle;Signal;HPM_P1;HPM_P2
2021/09/28 00:00:11;;;;;;;0.27;0.27;;;15.10;99.90;;;;;;5092982;28;20182;-80
2021/09/28 00:02:36;;;;;;;0.53;0.53;;;15.10;99.90;;;;;;5086216;28;20247;-81
2021/09/28 00:05:02;;;;;;;0.10;0.10;;;15.10;99.90;;;;;;5093034;28;20174;-81
2021/09/28 00:07:28;;;;;;;0.10;0.10;;;15.10;99.90;;;;;;5085563;28;20279;-80
2021/09/28 00:09:53;;;;;;;0.20;0.20;;;15.10;99.90;;;;;;5093965;28;20189;-80
2021/09/28 00:12:19;;;;;;;0.00;0.00;;;15.10;99.90;;;;;;5091667;28;20938;-81
2021/09/28 00:14:45;;;;;;;0.40;0.40;;;15.10;99.90;;;;;;5086113;28;20179;-80
2021/09/28 00:17:11;;;;;;;0.10;0.10;;;15.10;99.90;;;;;;5093478;28;20674;-80
2021/09/28 00:19:38;;;;;;;0.10;0.10;;;15.10;99.90;;;;;;5089385;28;20173;-81
2021/09/28 00:22:04;;;;;;;0.20;0.17;;;14.90;99.90;;;;;;5098585;28;20596;-81
2021/09/28 00:24:29;;;;;;;0.10;0.10;;;14.80;99.90;;;;;;5094125;28;20238;-81
2021/09/28 00:26:55;;;;;;;0.10;0.10;;;14.70;99.90;;;;;;5088540;28;20200;-81
2021/09/28 00:29:20;;;;;;;0.20;0.20;;;14.70;99.90;;;;;;5089958;28;20243;-81
2021/09/28 00:31:46;;;;;;;0.23;0.23;;;14.70;99.90;;;;;;5088989;28;20193;-81
2021/09/28 00:34:12;;;;;;;0.10;0.10;;;14.60;99.90;;;;;;5095857;28;20187;-81
2021/09/28 00:36:37;;;;;;;0.30;0.10;;;14.70;99.90;;;;;;5087895;28;20218;-81
2021/09/28 00:39:03;;;;;;;0.10;0.10;;;14.60;99.90;;;;;;5092396;28;20180;-81
2021/09/28 00:41:29;;;;;;;0.10;0.10;;;14.40;99.90;;;;;;5086265;28;20193;-81
2021/09/28 00:43:55;;;;;;;0.10;0.10;;;14.50;99.90;;;;;;5088176;28;20204;-81
2021/09/28 00:46:22;;;;;;;0.33;0.20;;;14.40;99.90;;;;;;5089930;28;20193;-80
2021/09/28 00:48:49;;;;;;;0.10;0.10;;;14.40;99.90;;;;;;5092052;28;20245;-81
2021/09/28 00:51:15;;;;;;;0.10;0.10;;;14.40;99.90;;;;;;5090728;28;20260;-81
2021/09/28 00:53:42;;;;;;;0.30;0.10;;;14.40;99.90;;;;;;5086281;28;20201;-81
2021/09/28 00:56:10;;;;;;;0.10;0.10;;;14.40;99.90;;;;;;5089971;28;20172;-81
2021/09/28 00:58:38;;;;;;;0.10;0.10;;;14.10;99.90;;;;;;5089625;28;20164;-81
2021/09/28 01:01:04;;;;;;;0.10;0.10;;;14.10;99.90;;;;;;5089178;28;20178;-81
2021/09/28 01:03:34;;;;;;;0.17;0.17;;;13.90;99.90;;;;;;5087797;28;20276;-81
2021/09/28 01:06:00;;;;;;;0.20;0.20;;;13.80;99.90;;;;;;5077614;28;20168;-80
2021/09/28 01:08:27;;;;;;;0.13;0.13;;;13.80;99.90;;;;;;5087721;28;20206;-81
2021/09/28 01:10:53;;;;;;;0.10;0.10;;;13.90;99.90;;;;;;5086694;28;20176;-81
2021/09/28 01:13:23;;;;;;;0.00;0.00;;;14.00;99.90;;;;;;5079408;28;20196;-80
2021/09/28 01:15:58;;;;;;;0.10;0.10;;;14.10;99.90;;;;;;5096139;28;20200;-81
2021/09/28 01:18:24;;;;;;;0.00;0.00;;;14.10;99.90;;;;;;5082543;28;20204;-81
2021/09/28 01:20:50;;;;;;;0.87;0.67;;;14.10;99.90;;;;;;5096533;28;20198;-81
2021/09/28 01:23:16;;;;;;;0.10;0.10;;;14.00;99.90;;;;;;5074364;28;20197;-81
2021/09/28 01:25:42;;;;;;;0.10;0.10;;;14.10;99.90;;;;;;5087878;28;20190;-80
2021/09/28 01:28:07;;;;;;;0.10;0.10;;;14.10;99.90;;;;;;5090640;28;20215;-81
2021/09/28 01:30:34;;;;;;;0.10;0.10;;;14.00;99.90;;;;;;5087104;28;20188;-81
2021/09/28 01:32:59;;;;;;;0.10;0.10;;;14.00;99.90;;;;;;5099451;28;20891;-81
2021/09/28 01:35:25;;;;;;;0.10;0.10;;;13.90;99.90;;;;;;5099536;28;20188;-81
2021/09/28 01:37:50;;;;;;;0.97;0.20;;;13.90;99.90;;;;;;5088960;28;20200;-81
2021/09/28 01:40:16;;;;;;;0.20;0.20;;;14.00;99.90;;;;;;5088588;28;20179;-81
2021/09/28 01:42:41;;;;;;;0.10;0.10;;;14.00;99.90;;;;;;5091662;28;20223;-80
2021/09/28 01:45:07;;;;;;;1.13;0.17;;;14.00;99.90;;;;;;5091746;28;20648;-81
2021/09/28 01:47:33;;;;;;;0.20;0.13;;;14.00;99.90;;;;;;5091485;28;20591;-81
2021/09/28 01:49:58;;;;;;;0.10;0.10;;;13.90;99.90;;;;;;5091828;28;20206;-81
2021/09/28 01:52:24;;;;;;;0.10;0.10;;;13.90;99.90;;;;;;5088886;28;20302;-80
2021/09/28 01:54:49;;;;;;;0.30;0.30;;;13.90;99.90;;;;;;5096856;28;20180;-80
2021/09/28 01:57:15;;;;;;;0.20;0.20;;;13.80;99.90;;;;;;5093694;28;20295;-80
2021/09/28 01:59:41;;;;;;;0.07;0.07;;;13.90;99.90;;;;;;5095879;28;20233;-81
2021/09/28 02:02:06;;;;;;;0.13;0.13;;;13.80;99.90;;;;;;5094998;28;20197;-80
2021/09/28 02:04:32;;;;;;;0.10;0.10;;;13.70;99.90;;;;;;5087535;28;20594;-81
2021/09/28 02:06:58;;;;;;;0.10;0.10;;;13.60;99.90;;;;;;5087807;28;20195;-80
2021/09/28 02:09:23;;;;;;;0.10;0.10;;;13.60;99.90;;;;;;5093673;28;20176;-81
2021/09/28 02:11:49;;;;;;;0.10;0.10;;;13.60;99.90;;;;;;5096727;28;20182;-81
2021/09/28 02:14:15;;;;;;;1.17;1.13;;;13.50;99.90;;;;;;5094129;28;20624;-81
2021/09/28 02:16:44;;;;;;;0.10;0.10;;;13.50;99.90;;;;;;5093075;28;20203;-81
2021/09/28 02:19:10;;;;;;;0.10;0.10;;;13.50;99.90;;;;;;5093549;28;20177;-80
2021/09/28 02:21:36;;;;;;;0.10;0.10;;;13.50;99.90;;;;;;5088838;28;20182;-81
2021/09/28 02:24:02;;;;;;;0.33;0.33;;;13.40;99.90;;;;;;5091409;28;20191;-81
2021/09/28 02:26:27;;;;;;;0.10;0.10;;;13.40;99.90;;;;;;5091423;28;20200;-81
2021/09/28 02:28:53;;;;;;;0.23;0.17;;;13.40;99.90;;;;;;5091032;28;20525;-80
2021/09/28 02:31:19;;;;;;;0.00;0.00;;;13.40;99.90;;;;;;5089760;28;20199;-81
2021/09/28 02:33:44;;;;;;;0.10;0.10;;;13.40;99.90;;;;;;5097728;28;20206;-81
2021/09/28 02:36:10;;;;;;;2.17;0.30;;;13.30;99.90;;;;;;5093690;28;20184;-80
2021/09/28 02:38:36;;;;;;;0.10;0.10;;;13.30;99.90;;;;;;5088998;28;20667;-81
2021/09/28 02:41:02;;;;;;;3.30;0.47;;;13.40;99.90;;;;;;5098284;28;20199;-81
2021/09/28 02:43:28;;;;;;;0.10;0.10;;;13.40;99.90;;;;;;5098421;28;20201;-81
2021/09/28 02:45:53;;;;;;;0.10;0.10;;;13.30;99.90;;;;;;5094376;28;20176;-81
2021/09/28 02:48:19;;;;;;;0.10;0.10;;;13.40;99.90;;;;;;5096549;28;20188;-81
2021/09/28 02:50:45;;;;;;;0.10;0.10;;;13.40;99.90;;;;;;5095192;28;20204;-81
2021/09/28 02:53:11;;;;;;;0.13;0.13;;;13.30;99.90;;;;;;5090230;28;20287;-80
2021/09/28 02:55:37;;;;;;;0.10;0.10;;;13.10;99.90;;;;;;5097870;28;20232;-80
2021/09/28 02:58:03;;;;;;;0.60;0.57;;;13.20;99.90;;;;;;5095172;28;20209;-80
2021/09/28 03:00:28;;;;;;;0.10;0.10;;;13.20;99.90;;;;;;5089742;28;20176;-81
2021/09/28 03:02:54;;;;;;;0.47;0.47;;;13.20;99.90;;;;;;5090057;28;20217;-81
2021/09/28 03:05:20;;;;;;;0.10;0.10;;;13.20;99.90;;;;;;5090146;28;20260;-80
2021/09/28 03:07:45;;;;;;;0.60;0.60;;;13.20;99.90;;;;;;5090352;28;20573;-80
2021/09/28 03:10:11;;;;;;;0.57;0.53;;;13.20;99.90;;;;;;5093351;28;20187;-81
2021/09/28 03:12:37;;;;;;;0.10;0.10;;;13.20;99.90;;;;;;5093176;28;20204;-80
2021/09/28 03:15:03;;;;;;;0.20;0.20;;;13.20;99.90;;;;;;5110393;28;20176;-80
2021/09/28 03:17:29;;;;;;;0.00;0.00;;;13.10;99.90;;;;;;5098536;28;20199;-80
2021/09/28 03:19:54;;;;;;;0.10;0.10;;;13.10;99.90;;;;;;5087232;28;20172;-81
2021/09/28 03:22:20;;;;;;;0.27;0.10;;;13.00;99.90;;;;;;5091678;28;20274;-80
2021/09/28 03:24:46;;;;;;;1.70;0.23;;;13.00;99.90;;;;;;5087038;28;20641;-80
2021/09/28 03:27:11;;;;;;;0.10;0.10;;;13.00;99.90;;;;;;5086355;28;20194;-81
2021/09/28 03:29:37;;;;;;;0.03;0.03;;;13.00;99.90;;;;;;5093897;28;20590;-81
2021/09/28 03:32:03;;;;;;;0.30;0.30;;;13.00;99.90;;;;;;5090068;28;20200;-80
2021/09/28 03:34:28;;;;;;;0.50;0.13;;;13.00;99.90;;;;;;5083846;28;20528;-80
2021/09/28 03:36:54;;;;;;;3.10;0.13;;;13.10;99.90;;;;;;5090415;28;20546;-81
2021/09/28 03:39:19;;;;;;;0.10;0.10;;;13.00;99.90;;;;;;5092957;28;20187;-81
2021/09/28 03:41:45;;;;;;;0.10;0.10;;;13.00;99.90;;;;;;5088296;28;20195;-80
2021/09/28 03:44:11;;;;;;;0.10;0.10;;;13.00;99.90;;;;;;5096675;28;20249;-80
2021/09/28 03:46:36;;;;;;;0.63;0.63;;;13.00;99.90;;;;;;5088536;28;20812;-81
2021/09/28 03:49:02;;;;;;;0.10;0.10;;;13.10;99.90;;;;;;5094126;28;20206;-81
2021/09/28 03:51:28;;;;;;;0.10;0.10;;;13.10;99.90;;;;;;5093953;28;20180;-81
2021/09/28 03:53:53;;;;;;;0.10;0.10;;;13.10;99.90;;;;;;5087248;28;20218;-81
2021/09/28 03:56:20;;;;;;;0.70;0.37;;;13.10;99.90;;;;;;5095199;28;20184;-80
2021/09/28 03:58:46;;;;;;;0.17;0.17;;;13.10;99.90;;;;;;5088579;28;20720;-81
2021/09/28 04:01:11;;;;;;;0.20;0.20;;;13.00;99.90;;;;;;5090881;28;20180;-81
2021/09/28 04:03:40;;;;;;;0.17;0.13;;;13.00;99.90;;;;;;5089435;28;20249;-80
2021/09/28 04:06:06;;;;;;;0.07;0.07;;;13.00;99.90;;;;;;5092529;28;20177;-80
2021/09/28 04:08:32;;;;;;;0.23;0.20;;;13.00;99.90;;;;;;5090031;28;20175;-80
2021/09/28 04:10:57;;;;;;;1.83;0.40;;;13.00;99.90;;;;;;5097899;28;20172;-81
2021/09/28 04:13:23;;;;;;;0.40;0.40;;;13.00;99.90;;;;;;5082995;28;20200;-81
2021/09/28 04:15:48;;;;;;;0.10;0.10;;;13.00;99.90;;;;;;5095044;28;20587;-80
2021/09/28 04:18:14;;;;;;;0.10;0.10;;;13.00;99.90;;;;;;5092891;28;20238;-81
2021/09/28 04:20:42;;;;;;;0.23;0.23;;;13.00;99.90;;;;;;5086178;28;20230;-80
2021/09/28 04:23:09;;;;;;;0.40;0.37;;;12.90;99.90;;;;;;5084236;28;20196;-81
2021/09/28 04:25:35;;;;;;;0.10;0.10;;;12.80;99.90;;;;;;5087675;28;20189;-81
2021/09/28 04:28:01;;;;;;;0.10;0.10;;;12.80;99.90;;;;;;5107179;28;20563;-80
2021/09/28 04:30:27;;;;;;;0.10;0.10;;;12.80;99.90;;;;;;5092914;28;20187;-81
2021/09/28 04:32:52;;;;;;;0.00;0.00;;;12.80;99.90;;;;;;5085583;28;20207;-80
2021/09/28 04:35:18;;;;;;;0.00;0.00;;;12.70;99.90;;;;;;5091573;28;20236;-80
2021/09/28 04:37:44;;;;;;;0.10;0.10;;;12.70;99.90;;;;;;5091957;28;20222;-81
2021/09/28 04:40:10;;;;;;;0.53;0.30;;;12.70;99.90;;;;;;5089675;28;20690;-80
2021/09/28 04:42:36;;;;;;;0.47;0.20;;;12.70;99.90;;;;;;5084929;28;20193;-81
2021/09/28 04:45:04;;;;;;;0.73;0.30;;;12.70;99.90;;;;;;5084559;28;20634;-81
2021/09/28 04:47:29;;;;;;;0.10;0.10;;;12.70;99.90;;;;;;5093033;28;20180;-81
2021/09/28 04:49:55;;;;;;;6.13;0.20;;;12.70;99.90;;;;;;5088227;28;20255;-80
2021/09/28 04:52:21;;;;;;;0.27;0.27;;;12.70;99.90;;;;;;5090941;28;20230;-80
2021/09/28 04:54:46;;;;;;;0.30;0.30;;;12.70;99.90;;;;;;5098014;28;20188;-81
2021/09/28 04:57:12;;;;;;;0.17;0.17;;;12.70;99.90;;;;;;5108009;28;20261;-81
2021/09/28 04:59:37;;;;;;;0.57;0.57;;;12.60;99.90;;;;;;5088687;28;20184;-82
2021/09/28 05:02:03;;;;;;;0.10;0.10;;;12.50;99.90;;;;;;5090060;28;20200;-81
2021/09/28 05:04:29;;;;;;;0.10;0.10;;;12.50;99.90;;;;;;5092272;28;20217;-80
2021/09/28 05:06:55;;;;;;;0.10;0.10;;;12.50;99.90;;;;;;5088023;28;20184;-80
2021/09/28 05:09:21;;;;;;;0.10;0.10;;;12.50;99.90;;;;;;5085358;28;20182;-81
2021/09/28 05:11:48;;;;;;;0.23;0.23;;;12.50;99.90;;;;;;5091078;28;20184;-81
2021/09/28 05:14:13;;;;;;;0.80;0.20;;;12.50;99.90;;;;;;5098552;28;20211;-81
2021/09/28 05:16:39;;;;;;;0.17;0.17;;;12.50;99.90;;;;;;5087808;28;20632;-81
2021/09/28 05:19:05;;;;;;;0.63;0.33;;;12.40;99.90;;;;;;5088066;28;20223;-80
2021/09/28 05:21:32;;;;;;;0.30;0.30;;;12.40;99.90;;;;;;5087433;28;20183;-80
2021/09/28 05:23:58;;;;;;;0.10;0.10;;;12.30;99.90;;;;;;5088242;28;20199;-80
2021/09/28 05:26:24;;;;;;;0.20;0.20;;;12.40;99.90;;;;;;5088908;28;20310;-81
2021/09/28 05:28:50;;;;;;;0.10;0.10;;;12.30;99.90;;;;;;5084522;28;20191;-80
2021/09/28 05:31:17;;;;;;;0.13;0.13;;;12.20;99.90;;;;;;5089763;28;20183;-81
2021/09/28 05:33:43;;;;;;;0.20;0.20;;;12.10;99.90;;;;;;5087259;28;20206;-80
2021/09/28 05:36:09;;;;;;;0.20;0.20;;;11.80;99.90;;;;;;5085061;28;20199;-81
2021/09/28 05:38:34;;;;;;;0.83;0.80;;;11.60;99.90;;;;;;5084859;28;20231;-81
2021/09/28 05:41:06;;;;;;;0.37;0.37;;;11.40;99.90;;;;;;5088197;28;20171;-81
2021/09/28 05:43:32;;;;;;;0.27;0.27;;;11.40;99.90;;;;;;5105905;28;20245;-81
2021/09/28 05:45:58;;;;;;;0.23;0.23;;;11.60;99.90;;;;;;5094918;28;20174;-81
2021/09/28 05:48:23;;;;;;;0.10;0.10;;;11.50;99.90;;;;;;5105267;28;20361;-81
2021/09/28 05:50:49;;;;;;;0.10;0.10;;;11.60;99.90;;;;;;5101827;28;20186;-81
2021/09/28 05:53:15;;;;;;;0.10;0.10;;;11.70;99.90;;;;;;5094769;28;20201;-80
2021/09/28 05:55:41;;;;;;;0.17;0.10;;;11.90;99.90;;;;;;5089836;28;20238;-80
2021/09/28 05:58:06;;;;;;;0.20;0.20;;;12.00;99.90;;;;;;5090264;28;20207;-81
2021/09/28 06:00:32;;;;;;;0.10;0.10;;;12.10;99.90;;;;;;5089861;28;20206;-80
2021/09/28 06:02:58;;;;;;;1.03;0.17;;;12.10;99.90;;;;;;5098659;28;20247;-80
2021/09/28 06:05:23;;;;;;;0.30;0.20;;;11.80;99.90;;;;;;5096475;28;20186;-80
2021/09/28 06:07:49;;;;;;;0.30;0.30;;;11.70;99.90;;;;;;5088606;28;20227;-80
2021/09/28 06:10:15;;;;;;;1.50;0.40;;;11.80;99.90;;;;;;5094636;28;20191;-81
2021/09/28 06:12:41;;;;;;;6.80;0.27;;;11.80;99.90;;;;;;5088405;28;20714;-81
2021/09/28 06:15:07;;;;;;;0.27;0.27;;;11.90;99.90;;;;;;5087986;28;20837;-81
2021/09/28 06:17:33;;;;;;;0.03;0.03;;;12.10;99.90;;;;;;5097270;28;20209;-80
2021/09/28 06:19:58;;;;;;;0.20;0.20;;;12.30;99.90;;;;;;5093239;28;20184;-80
2021/09/28 06:22:27;;;;;;;0.10;0.10;;;12.40;99.90;;;;;;5102078;28;20201;-80
2021/09/28 06:24:56;;;;;;;0.10;0.10;;;12.60;99.90;;;;;;5100140;28;20284;-80
2021/09/28 06:27:23;;;;;;;0.20;0.20;;;12.80;99.90;;;;;;5086492;28;20219;-81
2021/09/28 06:29:50;;;;;;;0.20;0.20;;;12.90;99.90;;;;;;5093631;28;20187;-81
2021/09/28 06:32:18;;;;;;;0.20;0.20;;;12.90;99.90;;;;;;5092790;28;20217;-80
2021/09/28 06:34:43;;;;;;;0.30;0.30;;;12.60;99.90;;;;;;5093084;28;20208;-80
2021/09/28 06:37:09;;;;;;;0.20;0.20;;;12.40;99.90;;;;;;5092730;28;20259;-81
2021/09/28 06:39:34;;;;;;;0.30;0.30;;;12.30;99.90;;;;;;5089498;28;20179;-81
2021/09/28 06:42:00;;;;;;;0.20;0.20;;;12.30;99.90;;;;;;5092694;28;20163;-80
2021/09/28 06:44:26;;;;;;;0.10;0.10;;;12.40;99.90;;;;;;5093047;28;20194;-81
2021/09/28 06:46:52;;;;;;;0.20;0.20;;;12.40;99.90;;;;;;5092894;28;20179;-80
2021/09/28 06:49:17;;;;;;;0.10;0.10;;;12.50;99.90;;;;;;5095378;28;20233;-81
2021/09/28 06:51:43;;;;;;;0.40;0.33;;;12.50;99.90;;;;;;5090401;28;20214;-81
2021/09/28 06:54:08;;;;;;;1.73;0.30;;;12.40;99.90;;;;;;5094634;28;20243;-80
2021/09/28 06:56:34;;;;;;;0.30;0.30;;;12.50;99.90;;;;;;5100008;28;20203;-81
2021/09/28 06:59:00;;;;;;;0.13;0.13;;;12.70;99.90;;;;;;5090066;28;20225;-81
2021/09/28 07:01:26;;;;;;;0.20;0.20;;;12.90;99.90;;;;;;5090973;28;20168;-81
2021/09/28 07:03:51;;;;;;;0.13;0.13;;;13.00;99.90;;;;;;5090528;28;20228;-80
2021/09/28 07:06:17;;;;;;;0.30;0.30;;;13.20;99.90;;;;;;5098982;28;20178;-80
2021/09/28 07:08:42;;;;;;;0.10;0.10;;;13.30;99.90;;;;;;5098232;28;20542;-81
2021/09/28 07:11:08;;;;;;;0.20;0.20;;;13.50;99.90;;;;;;5099099;28;20176;-81
2021/09/28 07:13:33;;;;;;;0.20;0.20;;;13.60;99.90;;;;;;5088031;28;20799;-81
2021/09/28 07:15:59;;;;;;;0.27;0.27;;;13.80;99.90;;;;;;5091655;28;20222;-81
2021/09/28 07:18:25;;;;;;;0.10;0.10;;;13.90;99.90;;;;;;5089442;28;20572;-81
2021/09/28 07:20:50;;;;;;;0.10;0.10;;;13.90;99.90;;;;;;5091646;28;20177;-81
2021/09/28 07:23:16;;;;;;;0.20;0.20;;;14.10;99.90;;;;;;5093360;28;20826;-81
2021/09/28 07:25:42;;;;;;;0.00;0.00;;;14.20;99.90;;;;;;5088944;28;20181;-81
2021/09/28 07:28:08;;;;;;;0.50;0.30;;;14.20;99.90;;;;;;5095432;28;20221;-81
2021/09/28 07:30:34;;;;;;;0.10;0.10;;;14.40;99.90;;;;;;5097526;28;20577;-80
2021/09/28 07:33:01;;;;;;;0.17;0.17;;;14.60;99.90;;;;;;5087065;28;20200;-80
2021/09/28 07:35:27;;;;;;;0.20;0.20;;;14.60;99.90;;;;;;5088109;28;20176;-81
2021/09/28 07:37:53;;;;;;;0.10;0.10;;;14.90;99.90;;;;;;5088187;28;20213;-81
2021/09/28 07:40:19;;;;;;;0.20;0.20;;;15.20;99.90;;;;;;5091276;28;20233;-81
2021/09/28 07:42:46;;;;;;;0.20;0.20;;;15.40;99.90;;;;;;5091961;28;20217;-81
2021/09/28 07:45:13;;;;;;;0.10;0.10;;;15.50;99.90;;;;;;5090516;28;20180;-80
2021/09/28 07:47:39;;;;;;;0.20;0.20;;;15.60;99.90;;;;;;5090725;28;20184;-81
2021/09/28 07:50:05;;;;;;;0.13;0.13;;;15.40;99.90;;;;;;5091892;28;20192;-81
2021/09/28 07:52:31;;;;;;;0.30;0.30;;;15.60;99.90;;;;;;5090115;28;20683;-81
2021/09/28 07:54:56;;;;;;;0.10;0.10;;;15.70;99.90;;;;;;5095730;28;20289;-81
2021/09/28 07:57:22;;;;;;;0.20;0.20;;;15.70;99.90;;;;;;5090310;28;20680;-80
2021/09/28 07:59:48;;;;;;;0.20;0.20;;;15.80;99.90;;;;;;5089603;28;20177;-81
2021/09/28 08:02:13;;;;;;;0.20;0.20;;;15.80;99.90;;;;;;5092551;28;20205;-81
2021/09/28 08:04:40;;;;;;;0.20;0.20;;;15.70;99.90;;;;;;5087327;28;20260;-81
2021/09/28 08:07:13;;;;;;;0.30;0.30;;;15.80;99.90;;;;;;5093508;28;20178;-81
2021/09/28 08:09:40;;;;;;;0.20;0.20;;;15.80;99.90;;;;;;5096415;28;20177;-81
2021/09/28 08:12:07;;;;;;;0.77;0.13;;;15.90;99.90;;;;;;5086635;28;20198;-81
2021/09/28 08:14:32;;;;;;;0.10;0.10;;;16.10;99.90;;;;;;5095002;28;20184;-81
2021/09/28 08:16:58;;;;;;;0.10;0.10;;;16.20;99.90;;;;;;5098560;28;20198;-81
2021/09/28 08:19:23;;;;;;;0.20;0.20;;;16.30;99.90;;;;;;5090729;28;20204;-81
2021/09/28 08:21:51;;;;;;;0.17;0.17;;;16.50;99.90;;;;;;5090236;28;20202;-81
2021/09/28 08:24:17;;;;;;;0.37;0.37;;;16.60;99.90;;;;;;5094824;28;20171;-81
2021/09/28 08:29:27;;;;;;;0.10;0.10;;;16.90;99.90;;;;;;5091113;28;20197;-81
2021/09/28 08:31:52;;;;;;;0.33;0.30;;;17.00;99.90;;;;;;5089434;28;20187;-80
2021/09/28 08:34:19;;;;;;;0.23;0.23;;;17.00;99.90;;;;;;5102115;28;20193;-81
2021/09/28 08:36:47;;;;;;;0.57;0.37;;;17.20;99.90;;;;;;5090459;28;20662;-81
2021/09/28 08:39:15;;;;;;;0.17;0.17;;;17.30;99.90;;;;;;5090481;28;20269;-81
2021/09/28 08:41:47;;;;;;;0.10;0.10;;;17.40;99.90;;;;;;5084794;28;20176;-80
2021/09/28 08:44:15;;;;;;;0.73;0.40;;;17.30;99.90;;;;;;5084587;28;20183;-81
2021/09/28 08:46:41;;;;;;;0.30;0.30;;;17.30;99.90;;;;;;5086800;28;20181;-81
2021/09/28 08:49:07;;;;;;;0.53;0.37;;;17.40;99.90;;;;;;5091764;28;20175;-81
2021/09/28 08:51:33;;;;;;;0.20;0.20;;;17.60;99.90;;;;;;5094177;28;20533;-81
2021/09/28 08:53:59;;;;;;;0.27;0.27;;;17.70;99.90;;;;;;5090016;28;20427;-81
2021/09/28 08:56:25;;;;;;;0.20;0.20;;;17.90;99.90;;;;;;5098431;28;20281;-81
2021/09/28 08:58:59;;;;;;;0.20;0.20;;;17.80;99.90;;;;;;5087901;28;20205;-81
2021/09/28 09:01:26;;;;;;;0.57;0.57;;;17.80;99.90;;;;;;5092905;28;20179;-81
2021/09/28 09:03:52;;;;;;;0.37;0.37;;;17.70;99.90;;;;;;5088217;28;20198;-81
2021/09/28 09:06:18;;;;;;;2.90;1.27;;;17.30;99.90;;;;;;5095940;28;20175;-81
2021/09/28 09:08:48;;;;;;;0.93;0.40;;;17.30;99.90;;;;;;5077452;28;20302;-81
2021/09/28 09:11:16;;;;;;;0.20;0.20;;;17.40;99.90;;;;;;5097401;28;20194;-81
2021/09/28 09:13:47;;;;;;;0.57;0.57;;;17.50;99.90;;;;;;5085389;28;20197;-81
2021/09/28 09:16:15;;;;;;;0.17;0.17;;;17.70;99.90;;;;;;5098171;28;20173;-81
2021/09/28 09:18:49;;;;;;;0.80;0.80;;;17.80;99.90;;;;;;5096073;28;20540;-81
2021/09/28 09:21:15;;;;;;;0.20;0.20;;;18.10;99.90;;;;;;5089546;28;20178;-81
2021/09/28 09:23:52;;;;;;;0.30;0.30;;;18.20;99.90;;;;;;5087743;28;20211;-81
2021/09/28 09:26:17;;;;;;;0.30;0.30;;;18.00;99.90;;;;;;5089929;28;20648;-81
2021/09/28 09:28:49;;;;;;;0.33;0.27;;;17.30;99.90;;;;;;5089520;28;20184;-80
2021/09/28 09:31:35;;;;;;;0.70;0.70;;;17.20;99.90;;;;;;5091360;28;20176;-81
2021/09/28 09:34:19;;;;;;;0.33;0.33;;;17.60;99.90;;;;;;5076762;28;20226;-81
2021/09/28 09:37:05;;;;;;;0.30;0.30;;;18.10;99.90;;;;;;5087125;28;20609;-81
2021/09/28 09:39:51;;;;;;;0.20;0.20;;;18.50;99.90;;;;;;5086481;28;20177;-81
2021/09/28 09:42:17;;;;;;;0.30;0.30;;;18.90;99.90;;;;;;5097047;28;20219;-81
2021/09/28 09:44:43;;;;;;;0.40;0.40;;;18.50;99.90;;;;;;5089440;28;20183;-81
2021/09/28 09:47:30;;;;;;;0.20;0.20;;;18.50;99.90;;;;;;5088189;28;20182;-81
2021/09/28 09:50:19;;;;;;;0.10;0.10;;;18.00;99.90;;;;;;5087175;28;20603;-81
2021/09/28 09:52:57;;;;;;;0.20;0.20;;;18.70;99.90;;;;;;5089405;28;20208;-81
2021/09/28 09:55:34;;;;;;;0.10;0.10;;;19.20;99.90;;;;;;5096468;28;20189;-82
2021/09/28 09:58:03;;;;;;;0.30;0.30;;;19.50;99.90;;;;;;5083852;28;20201;-80
2021/09/28 10:00:29;;;;;;;0.10;0.10;;;19.60;99.90;;;;;;5093616;28;20179;-81
2021/09/28 10:02:55;;;;;;;0.87;0.20;;;19.70;99.90;;;;;;5091535;28;20197;-81
2021/09/28 10:05:21;;;;;;;0.30;0.30;;;20.00;99.90;;;;;;5091300;28;20193;-81
2021/09/28 10:07:50;;;;;;;0.10;0.10;;;18.90;99.90;;;;;;5090744;28;20190;-81
2021/09/28 10:10:18;;;;;;;0.50;0.50;;;18.80;99.90;;;;;;5096149;28;20212;-81
2021/09/28 10:12:44;;;;;;;0.13;0.13;;;19.10;99.90;;;;;;5090261;28;20210;-81
2021/09/28 10:15:12;;;;;;;0.30;0.30;;;18.60;99.90;;;;;;5097793;28;20202;-81
2021/09/28 10:17:43;;;;;;;1.17;0.60;;;18.90;99.90;;;;;;5099820;28;20203;-81
2021/09/28 10:20:24;;;;;;;0.10;0.10;;;18.60;99.90;;;;;;5088181;28;20177;-81
2021/09/28 10:22:59;;;;;;;0.30;0.30;;;19.00;99.90;;;;;;5096741;28;20233;-81
2021/09/28 10:25:36;;;;;;;0.10;0.10;;;18.70;99.90;;;;;;5083328;28;20173;-81
2021/09/28 10:28:05;;;;;;;0.20;0.20;;;19.30;99.90;;;;;;5087188;28;20646;-81
2021/09/28 10:30:31;;;;;;;0.40;0.27;;;19.30;99.90;;;;;;5096494;28;20239;-81
2021/09/28 10:32:57;;;;;;;0.33;0.33;;;18.70;99.90;;;;;;5089617;28;20235;-81
2021/09/28 10:35:24;;;;;;;1.13;0.30;;;18.80;99.90;;;;;;5094386;28;20172;-81
2021/09/28 10:37:56;;;;;;;0.20;0.20;;;19.30;99.90;;;;;;5091585;28;20219;-81
2021/09/28 10:40:24;;;;;;;0.20;0.20;;;19.60;99.90;;;;;;5091450;28;20175;-81
2021/09/28 10:43:00;;;;;;;0.10;0.10;;;19.30;99.90;;;;;;5091176;28;20248;-81
2021/09/28 10:45:29;;;;;;;0.10;0.10;;;19.60;99.90;;;;;;5091821;28;20187;-80
2021/09/28 10:48:23;;;;;;;0.20;0.20;;;20.30;99.90;;;;;;5089916;28;20174;-81
2021/09/28 10:51:22;;;;;;;0.20;0.20;;;20.70;99.90;;;;;;5090816;28;20176;-81
2021/09/28 10:53:54;;;;;;;0.10;0.10;;;20.80;99.90;;;;;;5095821;28;20204;-81
2021/09/28 10:56:20;;;;;;;0.87;0.70;;;21.20;99.90;;;;;;5101155;28;20184;-82
2021/09/28 10:58:55;;;;;;;0.20;0.20;;;19.70;99.90;;;;;;5081611;28;20173;-81
2021/09/28 11:01:23;;;;;;;0.20;0.20;;;19.80;99.90;;;;;;5094285;28;20660;-82
2021/09/28 11:03:57;;;;;;;0.20;0.20;;;20.20;99.90;;;;;;5090428;28;20294;-81
2021/09/28 11:06:47;;;;;;;0.10;0.10;;;20.50;99.90;;;;;;5089889;28;20184;-81
2021/09/28 11:09:13;;;;;;;0.40;0.17;;;20.70;99.90;;;;;;5087096;28;20188;-81
2021/09/28 11:11:40;;;;;;;0.30;0.30;;;20.80;99.90;;;;;;5092552;28;20192;-81
2021/09/28 11:14:07;;;;;;;0.10;0.10;;;20.70;99.90;;;;;;5095011;28;20333;-81
2021/09/28 11:17:11;;;;;;;0.10;0.10;;;20.90;99.90;;;;;;5092875;28;20176;-82
2021/09/28 11:19:38;;;;;;;0.10;0.10;;;21.00;99.90;;;;;;5081677;28;20188;-81
2021/09/28 11:22:11;;;;;;;0.23;0.20;;;20.90;99.90;;;;;;5092323;28;20513;-81
2021/09/28 11:24:37;;;;;;;0.10;0.10;;;20.70;99.90;;;;;;5089442;28;20180;-81
2021/09/28 11:27:06;;;;;;;0.37;0.37;;;20.80;99.90;;;;;;5090089;28;20650;-81
2021/09/28 11:29:32;;;;;;;0.17;0.17;;;21.00;99.90;;;;;;5092425;28;20181;-81
2021/09/28 11:31:58;;;;;;;0.17;0.17;;;20.90;99.90;;;;;;5083127;28;20177;-81
2021/09/28 11:34:30;;;;;;;0.10;0.10;;;20.00;99.90;;;;;;5083638;28;20533;-81
2021/09/28 11:37:01;;;;;;;0.20;0.20;;;19.50;99.90;;;;;;5089957;28;20700;-81
2021/09/28 11:39:31;;;;;;;0.57;0.57;;;19.00;99.90;;;;;;5091096;28;20181;-81
2021/09/28 11:41:57;;;;;;;0.10;0.10;;;19.00;99.90;;;;;;5099932;28;20169;-81
2021/09/28 11:44:46;;;;;;;0.23;0.13;;;19.30;99.90;;;;;;5109523;28;20186;-81
2021/09/28 11:47:17;;;;;;;0.20;0.20;;;19.20;99.90;;;;;;5087248;28;20180;-81
2021/09/28 11:49:48;;;;;;;0.13;0.13;;;19.40;99.90;;;;;;5086059;28;20189;-81
2021/09/28 11:52:13;;;;;;;4.03;2.23;;;18.60;99.90;;;;;;5092754;28;20209;-80
2021/09/28 11:54:45;;;;;;;0.10;0.10;;;18.60;99.90;;;;;;5095232;28;20246;-81
2021/09/28 11:57:11;;;;;;;1.07;0.83;;;17.90;99.90;;;;;;5090482;28;20302;-81
2021/09/28 11:59:37;;;;;;;0.20;0.20;;;17.50;99.90;;;;;;5091298;28;20684;-81
2021/09/28 12:02:02;;;;;;;1.97;1.83;;;17.60;99.90;;;;;;5096095;28;20263;-81
2021/09/28 12:09:34;;;;;;;0.97;0.60;;;18.10;99.90;;;;;;5096960;28;20226;-81
2021/09/28 12:12:02;;;;;;;0.10;0.10;;;18.00;99.90;;;;;;5087143;28;20176;-81
2021/09/28 12:14:38;;;;;;;0.10;0.10;;;18.30;99.90;;;;;;5086705;28;20664;-80
2021/09/28 12:17:11;;;;;;;0.20;0.20;;;18.40;99.90;;;;;;5093279;28;20221;-81
2021/09/28 12:19:37;;;;;;;0.10;0.10;;;18.70;99.90;;;;;;5099796;28;20175;-81
2021/09/28 12:22:04;;;;;;;0.40;0.40;;;18.60;99.90;;;;;;5091684;28;20176;-81
2021/09/28 12:24:41;;;;;;;0.20;0.20;;;19.20;99.90;;;;;;5091536;28;20211;-81
2021/09/28 12:27:07;;;;;;;0.10;0.10;;;18.80;99.90;;;;;;5084857;28;20188;-81
2021/09/28 12:29:40;;;;;;;0.10;0.10;;;18.70;99.90;;;;;;5090491;28;20190;-81
2021/09/28 12:32:06;;;;;;;0.10;0.10;;;18.90;99.90;;;;;;5085699;28;20213;-81
2021/09/28 12:34:47;;;;;;;0.40;0.33;;;18.90;99.90;;;;;;5082766;28;20873;-81
2021/09/28 12:37:13;;;;;;;0.43;0.30;;;19.30;99.90;;;;;;5086127;28;20238;-81
2021/09/28 12:39:38;;;;;;;0.30;0.30;;;19.50;99.90;;;;;;5091375;28;20639;-81
2021/09/28 12:42:06;;;;;;;0.20;0.20;;;19.50;99.90;;;;;;5098842;28;20169;-81
2021/09/28 12:44:33;;;;;;;0.10;0.10;;;19.50;99.90;;;;;;5101732;28;20174;-81
2021/09/28 12:47:19;;;;;;;0.73;0.57;;;19.00;99.90;;;;;;5103411;28;20190;-82
2021/09/28 12:49:44;;;;;;;0.10;0.10;;;19.40;99.90;;;;;;5099986;28;20185;-81
2021/09/28 12:52:10;;;;;;;0.10;0.10;;;19.50;99.90;;;;;;5102201;28;20239;-81
2021/09/28 12:54:36;;;;;;;0.10;0.10;;;19.90;99.90;;;;;;5089642;28;20280;-81
2021/09/28 12:57:02;;;;;;;0.10;0.10;;;20.30;99.90;;;;;;5096588;28;20197;-81